createdAt,value
2023-02-22T00:35:33.671Z,55.63
2023-02-22T00:41:07.803Z,43.03
2023-02-22T00:46:36.385Z,45.23
2023-02-22T00:51:42.431Z,39.30
2023-02-22T00:57:41.535Z,32.83
2023-02-22T01:16:02.265Z,32.70
2023-02-22T01:27:30.933Z,28.80
2023-02-22T01:39:16.272Z,23.37
2023-02-22T01:51:55.422Z,27.40
2023-02-22T02:03:28.951Z,23.37
2023-02-22T02:27:30.701Z,18.63
2023-02-22T02:32:54.752Z,15.53
2023-02-22T02:38:49.210Z,19.57
2023-02-22T02:44:04.333Z,16.37
2023-02-22T02:49:25.231Z,20.83
2023-02-22T02:54:37.801Z,26.03
2023-02-22T03:00:01.166Z,27.40
2023-02-22T03:05:47.809Z,73.37
2023-02-22T03:23:09.148Z,58.87
2023-02-22T03:28:28.819Z,100.70
2023-02-22T03:33:43.763Z,61.07
2023-02-22T03:39:43.511Z,62.90
2023-02-22T03:45:12.238Z,46.80
2023-02-22T03:50:43.705Z,61.97
2023-02-22T03:55:58.190Z,54.77
2023-02-22T04:01:10.895Z,61.57
2023-02-22T04:11:53.186Z,66.63
2023-02-22T04:17:23.638Z,64.97
2023-02-22T04:48:54.335Z,27.17
2023-02-22T04:51:28.190Z,37.50
2023-02-22T05:03:11.369Z,24.20
2023-02-22T05:15:45.282Z,20.63
2023-02-22T05:58:23.240Z,19.83
2023-02-22T06:04:06.325Z,29.80
2023-02-22T06:16:35.693Z,22.33
2023-02-22T06:21:46.126Z,17.17
2023-02-22T06:27:24.629Z,25.70
2023-02-22T06:32:46.578Z,24.80
2023-02-22T06:38:08.959Z,36.23
2023-02-22T06:43:22.165Z,25.87
2023-02-22T06:48:53.753Z,35.90
2023-02-22T07:00:39.746Z,14.27
2023-02-22T07:05:41.605Z,14.70
2023-02-22T07:10:57.647Z,17.30
2023-02-22T07:16:18.063Z,19.90
2023-02-22T07:22:02.390Z,19.63
2023-02-22T07:27:16.505Z,15.50
2023-02-22T07:32:27.544Z,19.63
2023-02-22T07:37:40.775Z,20.50
2023-02-22T07:42:58.039Z,42.10
2023-02-22T07:48:13.991Z,22.03
2023-02-22T07:53:24.367Z,25.87
2023-02-22T07:58:36.578Z,21.70
2023-02-22T08:03:38.572Z,34.83
2023-02-22T08:08:40.540Z,29.20
2023-02-22T08:14:04.280Z,24.30
2023-02-22T08:19:08.704Z,20.40
2023-02-22T08:24:19.202Z,23.77
2023-02-22T08:29:37.722Z,24.23
2023-02-22T08:34:40.847Z,23.60
2023-02-22T08:39:42.786Z,27.97
2023-02-22T08:44:50.007Z,21.13
2023-02-22T08:50:17.894Z,27.43
2023-02-22T08:55:26.723Z,28.27
2023-02-22T09:00:34.807Z,32.43
2023-02-22T09:05:49.901Z,32.80
2023-02-22T09:10:54.323Z,31.43
2023-02-22T09:16:00.712Z,28.57
2023-02-22T09:21:11.891Z,31.60
2023-02-22T09:26:18.641Z,29.90
2023-02-22T09:31:26.591Z,32.07
2023-02-22T09:36:33.483Z,29.50
2023-02-22T09:42:21.492Z,31.97
2023-02-22T09:47:37.076Z,30.67
2023-02-22T09:53:13.275Z,30.20
2023-02-22T10:05:11.989Z,24.97
2023-02-22T10:10:28.997Z,25.30
2023-02-22T10:16:02.487Z,23.60
2023-02-22T10:21:40.235Z,22.53
2023-02-22T10:26:54.288Z,21.93
2023-02-22T10:32:03.685Z,17.07
2023-02-22T10:37:17.241Z,17.90
2023-02-22T10:42:29.683Z,17.53
2023-02-22T10:47:47.155Z,16.20
2023-02-22T10:52:51.626Z,14.60
2023-02-22T10:58:08.875Z,17.83
2023-02-22T11:03:26.082Z,18.60
2023-02-22T11:08:37.294Z,13.90
2023-02-22T11:13:44.074Z,13.53
2023-02-22T11:19:00.345Z,13.47
2023-02-22T11:24:09.018Z,14.57
2023-02-22T11:29:35.334Z,14.13
2023-02-22T11:35:03.659Z,14.10
2023-02-22T11:40:24.809Z,11.80
2023-02-22T11:45:44.242Z,12.93
2023-02-22T11:51:16.230Z,13.00
2023-02-22T11:56:41.558Z,10.77
2023-02-22T12:01:59.672Z,12.90
2023-02-22T12:07:29.935Z,9.93
2023-02-22T12:13:03.082Z,11.20
2023-02-22T12:18:08.058Z,8.63
2023-02-22T12:23:15.396Z,7.07
2023-02-22T12:28:36.606Z,11.03
2023-02-22T12:33:54.526Z,8.57
2023-02-22T12:39:07.298Z,7.63
2023-02-22T12:44:22.897Z,9.70
2023-02-22T12:49:56.452Z,8.97
2023-02-22T12:55:11.037Z,9.03
2023-02-22T13:00:15.622Z,9.20
2023-02-22T13:05:22.610Z,9.00
2023-02-22T13:10:45.332Z,8.70
2023-02-22T13:16:05.562Z,7.63
2023-02-22T13:21:37.313Z,9.17
2023-02-22T13:27:14.179Z,8.10
2023-02-22T13:33:11.830Z,7.20
2023-02-22T13:38:28.937Z,6.17
2023-02-22T13:44:09.250Z,7.00
2023-02-22T13:49:55.634Z,6.87
2023-02-22T13:55:11.376Z,6.13
2023-02-22T14:00:45.138Z,5.57
2023-02-22T14:06:01.525Z,9.67
2023-02-22T14:11:14.585Z,7.90
2023-02-22T14:16:21.170Z,8.93
2023-02-22T14:21:26.100Z,7.27
2023-02-22T14:26:37.754Z,7.87
2023-02-22T14:31:49.485Z,7.60
2023-02-22T14:36:52.379Z,6.40
2023-02-22T14:42:09.040Z,8.10
2023-02-22T14:47:19.740Z,9.53
2023-02-22T14:52:39.097Z,6.17
2023-02-22T14:57:51.427Z,6.60
2023-02-22T15:03:02.206Z,8.70
2023-02-22T15:08:07.219Z,7.57
2023-02-22T15:13:26.924Z,7.77
2023-02-22T15:18:37.471Z,6.47
2023-02-22T15:23:42.064Z,7.10
2023-02-22T15:28:51.351Z,10.60
2023-02-22T15:34:00.311Z,8.00
2023-02-22T15:39:08.783Z,6.77
2023-02-22T15:44:23.566Z,10.43
2023-02-22T15:49:28.905Z,7.50
2023-02-22T15:55:00.156Z,10.87
2023-02-22T16:00:05.009Z,13.57
2023-02-22T16:05:20.395Z,11.73
2023-02-22T16:10:30.819Z,14.77
2023-02-22T16:15:33.630Z,9.77
2023-02-22T16:20:45.585Z,9.30
2023-02-22T16:25:51.330Z,12.37
2023-02-22T16:31:04.537Z,10.37
2023-02-22T16:36:14.242Z,11.23
2023-02-22T16:41:47.160Z,16.13
2023-02-22T16:46:51.839Z,12.33
2023-02-22T16:52:04.979Z,10.70
2023-02-22T17:02:23.215Z,10.20
2023-02-22T17:07:37.869Z,13.20
2023-02-22T17:12:46.670Z,11.13
2023-02-22T17:18:02.346Z,11.20
2023-02-22T17:23:13.467Z,10.90
2023-02-22T17:28:20.560Z,11.20
2023-02-22T17:33:33.894Z,14.60
2023-02-22T17:38:46.544Z,20.37
2023-02-22T17:43:56.213Z,19.63
2023-02-22T17:49:03.138Z,21.33
2023-02-22T17:54:08.642Z,13.00
2023-02-22T17:59:38.917Z,14.03
2023-02-22T18:04:58.346Z,17.47
2023-02-22T18:10:00.756Z,15.03
2023-02-22T19:04:23.450Z,9.83
2023-02-22T19:26:09.395Z,11.07
2023-02-22T20:08:53.034Z,8.77
2023-02-22T20:48:16.465Z,10.73
2023-02-22T20:53:20.731Z,10.63
2023-02-22T20:58:31.265Z,11.93
2023-02-22T21:03:51.906Z,11.77
2023-02-22T21:08:59.628Z,9.00
2023-02-22T21:20:00.810Z,13.43
2023-02-22T21:25:19.213Z,11.50
2023-02-22T21:30:26.837Z,11.87
2023-02-22T21:35:28.805Z,12.07
2023-02-22T21:41:42.676Z,12.27
2023-02-22T21:47:41.392Z,20.63
2023-02-22T21:52:51.116Z,16.87
2023-02-22T21:58:57.536Z,12.53
2023-02-22T22:04:26.941Z,16.17
2023-02-22T22:09:43.426Z,18.43
2023-02-22T22:15:01.841Z,19.30
2023-02-22T22:26:14.992Z,26.23
2023-02-22T22:31:24.171Z,23.57
2023-02-22T22:36:30.688Z,26.73
2023-02-22T22:41:37.454Z,33.40
2023-02-22T22:46:42.848Z,27.07
2023-02-22T22:51:58.632Z,25.17
2023-02-22T22:57:24.126Z,25.73
2023-02-22T23:02:28.596Z,28.63
2023-02-22T23:07:41.543Z,38.37
2023-02-22T23:13:01.617Z,39.37
2023-02-22T23:18:07.591Z,40.50
2023-02-22T23:23:14.817Z,41.60
2023-02-22T23:28:23.830Z,40.77
2023-02-22T23:33:31.399Z,35.67
2023-02-22T23:38:43.306Z,40.53
2023-02-22T23:44:00.100Z,39.80
2023-02-22T23:49:06.727Z,43.10
2023-02-22T23:54:22.683Z,39.67
2023-02-22T23:59:30.590Z,41.23
